createdAt,value
2019-02-04T00:00:55.739Z,-6.92
2019-02-04T00:03:21.731Z,-6.92
2019-02-04T00:05:47.881Z,-6.92
2019-02-04T00:08:13.992Z,-6.95
2019-02-04T00:10:40.405Z,-6.91
2019-02-04T00:13:06.542Z,-6.91
2019-02-04T00:15:32.761Z,-6.91
2019-02-04T00:17:58.940Z,-6.91
2019-02-04T00:20:25.066Z,-6.91
2019-02-04T00:22:51.015Z,-6.91
2019-02-04T00:25:17.129Z,-6.91
2019-02-04T00:27:43.438Z,-6.89
2019-02-04T00:30:18.624Z,-6.89
2019-02-04T00:32:44.660Z,-6.92
2019-02-04T00:35:10.874Z,-6.92
2019-02-04T00:37:37.090Z,-6.90
2019-02-04T00:40:07.092Z,-6.90
2019-02-04T00:42:33.208Z,-7.22
2019-02-04T00:44:59.451Z,-6.94
2019-02-04T00:47:25.369Z,-6.94
2019-02-04T00:49:51.303Z,-6.90
2019-02-04T00:52:17.406Z,-6.89
2019-02-04T00:54:43.458Z,-6.90
2019-02-04T00:57:09.496Z,-6.92
2019-02-04T00:59:35.557Z,-6.89
2019-02-04T01:02:01.580Z,-6.89
2019-02-04T01:04:27.615Z,-6.89
2019-02-04T01:06:53.839Z,-6.88
2019-02-04T01:09:20.001Z,-6.88
2019-02-04T01:11:45.956Z,-6.88
2019-02-04T01:14:11.909Z,-6.88
2019-02-04T01:16:37.914Z,-6.88
2019-02-04T01:19:04.299Z,-6.88
2019-02-04T01:21:30.726Z,-6.89
2019-02-04T01:23:57.066Z,-6.87
2019-02-04T01:26:23.096Z,-6.87
2019-02-04T01:28:49.098Z,-6.87
2019-02-04T01:31:15.019Z,-6.88
2019-02-04T01:33:41.049Z,-6.87
2019-02-04T01:36:07.241Z,-6.87
2019-02-04T01:38:33.542Z,-6.87
2019-02-04T01:40:59.561Z,-6.87
2019-02-04T01:43:25.811Z,-6.86
2019-02-04T01:45:51.909Z,-6.86
2019-02-04T01:48:17.813Z,-6.85
2019-02-04T01:50:43.736Z,-6.86
2019-02-04T01:53:09.725Z,-6.85
2019-02-04T01:55:35.657Z,-6.85
2019-02-04T01:58:01.566Z,-6.85
2019-02-04T02:00:31.774Z,-6.85
2019-02-04T02:02:57.806Z,-6.85
2019-02-04T02:05:23.889Z,-6.85
2019-02-04T02:07:50.225Z,-6.85
2019-02-04T02:10:18.934Z,-6.85
2019-02-04T02:12:45.065Z,-6.83
2019-02-04T02:15:11.208Z,-6.82
2019-02-04T02:17:37.382Z,-6.87
2019-02-04T02:20:10.364Z,-6.87
2019-02-04T02:22:36.282Z,-6.82
2019-02-04T02:25:03.224Z,-6.83
2019-02-04T02:27:29.229Z,-6.82
2019-02-04T02:29:55.186Z,-6.82
2019-02-04T02:32:21.433Z,-6.82
2019-02-04T02:34:47.368Z,-6.82
2019-02-04T02:37:13.726Z,-6.83
2019-02-04T02:39:40.034Z,-6.83
2019-02-04T02:42:05.973Z,-6.81
2019-02-04T02:44:31.976Z,-6.85
2019-02-04T02:46:57.928Z,-6.82
2019-02-04T02:49:23.995Z,-6.83
2019-02-04T02:51:50.053Z,-6.84
2019-02-04T02:54:16.095Z,-6.84
2019-02-04T02:56:42.318Z,-6.81
2019-02-04T02:59:08.229Z,-6.83
2019-02-04T03:01:34.280Z,-6.82
2019-02-04T03:04:00.411Z,-6.81
2019-02-04T03:06:26.427Z,-6.82
2019-02-04T03:08:52.657Z,-6.82
2019-02-04T03:11:18.695Z,-7.14
2019-02-04T03:13:44.600Z,-6.81
2019-02-04T03:16:11.162Z,-6.81
2019-02-04T03:18:37.277Z,-6.86
2019-02-04T03:21:03.420Z,-6.85
2019-02-04T03:23:29.344Z,-6.83
2019-02-04T03:25:55.269Z,-6.83
2019-02-04T03:28:21.351Z,-6.82
2019-02-04T03:30:47.388Z,-6.83
2019-02-04T03:33:13.500Z,-6.84
2019-02-04T03:35:40.061Z,-6.82
2019-02-04T03:38:05.956Z,-6.82
2019-02-04T03:40:32.452Z,-6.84
2019-02-04T03:42:58.750Z,-6.84
2019-02-04T03:45:24.873Z,-6.84
2019-02-04T03:48:03.801Z,-6.83
2019-02-04T03:50:19.090Z,-6.83
2019-02-04T03:52:45.014Z,-6.88
2019-02-04T03:55:13.043Z,-6.88
2019-02-04T03:57:39.164Z,-6.84
2019-02-04T04:00:08.893Z,-6.84
2019-02-04T04:02:35.027Z,-6.84
2019-02-04T04:05:01.190Z,-6.86
2019-02-04T04:07:27.220Z,-6.88
2019-02-04T04:09:53.145Z,-6.88
2019-02-04T04:12:19.310Z,-6.88
2019-02-04T04:14:45.610Z,-6.83
2019-02-04T04:17:11.754Z,-6.86
2019-02-04T04:19:37.671Z,-6.83
2019-02-04T04:22:03.779Z,-6.84
2019-02-04T04:24:29.828Z,-6.83
2019-02-04T04:26:55.773Z,-6.83
2019-02-04T04:29:21.801Z,-6.83
2019-02-04T04:31:48.035Z,-6.84
2019-02-04T04:34:13.973Z,-6.84
2019-02-04T04:36:39.987Z,-6.85
2019-02-04T04:39:06.868Z,-6.84
2019-02-04T04:41:33.075Z,-6.85
2019-02-04T04:43:59.005Z,-6.87
2019-02-04T04:46:25.125Z,-6.87
2019-02-04T04:48:51.377Z,-6.85
2019-02-04T04:51:17.362Z,-6.85
2019-02-04T04:53:43.295Z,-6.83
2019-02-04T04:56:09.416Z,-6.85
2019-02-04T04:58:35.354Z,-6.85
2019-02-04T05:01:01.407Z,-6.85
2019-02-04T05:03:27.512Z,-6.86
2019-02-04T05:05:53.495Z,-6.86
2019-02-04T05:08:19.481Z,-6.86
2019-02-04T05:10:46.611Z,-6.85
2019-02-04T05:13:12.657Z,-6.86
2019-02-04T05:15:38.588Z,-6.89
2019-02-04T05:18:04.748Z,-6.88
2019-02-04T05:20:30.739Z,-6.87
2019-02-04T05:22:56.645Z,-6.87
2019-02-04T05:25:22.583Z,-6.88
2019-02-04T05:27:49.001Z,-6.88
2019-02-04T05:30:16.958Z,-6.87
2019-02-04T05:32:43.172Z,-6.90
2019-02-04T05:35:11.116Z,-6.90
2019-02-04T05:37:37.139Z,-6.90
2019-02-04T05:40:07.003Z,-6.89
2019-02-04T05:42:34.710Z,-6.91
2019-02-04T05:45:01.173Z,-6.91
2019-02-04T05:47:27.148Z,-6.90
2019-02-04T05:49:53.207Z,-6.90
2019-02-04T05:52:19.122Z,-6.89
2019-02-04T05:54:45.045Z,-6.89
2019-02-04T05:57:11.188Z,-6.90
2019-02-04T05:59:37.218Z,-6.93
2019-02-04T06:02:03.972Z,-6.93
2019-02-04T06:04:30.195Z,-6.91
2019-02-04T06:06:56.234Z,-6.91
2019-02-04T06:09:22.296Z,-6.91
2019-02-04T06:11:48.336Z,-6.91
2019-02-04T06:14:14.548Z,-6.94
2019-02-04T06:16:40.505Z,-6.94
2019-02-04T06:19:06.626Z,-6.91
2019-02-04T06:21:32.646Z,-6.90
2019-02-04T06:23:59.079Z,-6.91
2019-02-04T06:26:24.996Z,-6.91
2019-02-04T06:28:51.156Z,-6.92
2019-02-04T06:31:17.302Z,-6.90
2019-02-04T06:33:43.240Z,-6.90
2019-02-04T06:36:09.294Z,-6.90
2019-02-04T06:38:37.215Z,-6.90
2019-02-04T06:41:03.327Z,-6.90
2019-02-04T06:43:29.695Z,-6.93
2019-02-04T06:45:55.796Z,-6.93
2019-02-04T06:48:22.168Z,-6.91
2019-02-04T06:50:50.904Z,-6.91
2019-02-04T06:53:16.177Z,-6.91
2019-02-04T06:55:42.191Z,-6.91
2019-02-04T06:58:08.342Z,-6.91
2019-02-04T07:00:34.259Z,-6.92
2019-02-04T07:03:00.476Z,-6.94
2019-02-04T07:05:26.633Z,-6.93
2019-02-04T07:07:52.699Z,-6.93
2019-02-04T07:10:21.750Z,-6.91
2019-02-04T07:12:47.898Z,-6.90
2019-02-04T07:15:14.202Z,-6.92
2019-02-04T07:17:40.301Z,-6.92
2019-02-04T07:20:10.034Z,-6.92
2019-02-04T07:22:36.072Z,-6.92
2019-02-04T07:25:03.193Z,-6.93
2019-02-04T07:27:29.124Z,-6.94
2019-02-04T07:29:55.086Z,-6.94
2019-02-04T07:32:21.197Z,-6.95
2019-02-04T07:34:47.318Z,-6.96
2019-02-04T07:37:13.271Z,-7.06
2019-02-04T07:39:39.198Z,-7.06
2019-02-04T07:42:05.398Z,-6.97
2019-02-04T07:44:31.674Z,-6.96
2019-02-04T07:46:57.820Z,-6.96
2019-02-04T07:49:34.741Z,-7.01
2019-02-04T07:51:51.891Z,-6.97
2019-02-04T07:54:17.826Z,-6.99
2019-02-04T07:56:43.760Z,-6.99
2019-02-04T07:59:09.657Z,-6.99
2019-02-04T08:01:35.579Z,-7.00
2019-02-04T08:04:01.483Z,-7.00
2019-02-04T08:06:27.448Z,-7.01
2019-02-04T08:08:53.711Z,-7.01
2019-02-04T08:11:19.729Z,-7.01
2019-02-04T08:13:45.776Z,-7.05
2019-02-04T08:16:11.826Z,-7.05
2019-02-04T08:18:37.840Z,-7.02
2019-02-04T08:21:04.066Z,-7.06
2019-02-04T08:23:30.156Z,-7.04
2019-02-04T08:25:56.177Z,-7.08
2019-02-04T08:28:22.214Z,-7.08
2019-02-04T08:30:48.168Z,-7.07
2019-02-04T08:33:14.174Z,-7.08
2019-02-04T08:35:40.301Z,-7.10
2019-02-04T08:38:06.463Z,-7.10
2019-02-04T08:40:32.781Z,-7.12
2019-02-04T08:42:58.824Z,-7.11
2019-02-04T08:45:25.136Z,-7.10
2019-02-04T08:47:51.198Z,-7.19
2019-02-04T08:50:22.080Z,-7.11
2019-02-04T08:52:48.361Z,-7.13
2019-02-04T08:55:14.397Z,-7.12
2019-02-04T08:57:40.626Z,-7.13
2019-02-04T09:00:16.992Z,-7.14
2019-02-04T09:02:43.119Z,-7.14
2019-02-04T09:05:11.461Z,-7.15
2019-02-04T09:07:37.611Z,-7.16
2019-02-04T09:10:07.239Z,-7.16
2019-02-04T09:12:33.368Z,-7.20
2019-02-04T09:14:59.294Z,-7.20
2019-02-04T09:17:25.539Z,-7.17
2019-02-04T09:19:51.475Z,-7.18
2019-02-04T09:22:17.498Z,-7.18
2019-02-04T09:24:43.562Z,-7.19
2019-02-04T09:27:09.618Z,-7.19
2019-02-04T09:29:35.508Z,-7.19
2019-02-04T09:32:01.438Z,-7.21
2019-02-04T09:34:29.857Z,-7.21
2019-02-04T09:36:55.541Z,-7.22
2019-02-04T09:39:21.817Z,-7.23
2019-02-04T09:41:47.938Z,-7.22
2019-02-04T09:44:13.869Z,-7.22
2019-02-04T09:46:40.361Z,-7.24
2019-02-04T09:49:06.403Z,-7.24
2019-02-04T09:51:34.282Z,-7.24
2019-02-04T09:54:00.222Z,-7.26
2019-02-04T09:56:26.165Z,-7.25
2019-02-04T09:58:52.475Z,-7.26
2019-02-04T10:01:18.526Z,-7.26
2019-02-04T10:03:44.540Z,-7.27
2019-02-04T10:06:10.676Z,-7.28
2019-02-04T10:08:36.772Z,-7.31
2019-02-04T10:11:02.991Z,-7.31
2019-02-04T10:13:28.951Z,-7.29
2019-02-04T10:15:55.067Z,-7.29
2019-02-04T10:18:21.323Z,-7.30
2019-02-04T10:20:47.334Z,-7.30
2019-02-04T10:23:13.435Z,-7.30
2019-02-04T10:25:41.526Z,-7.30
2019-02-04T10:28:08.591Z,-7.30
2019-02-04T10:30:34.905Z,-7.32
2019-02-04T10:33:01.108Z,-7.31
2019-02-04T10:35:27.650Z,-7.32
2019-02-04T10:37:53.950Z,-7.32
2019-02-04T10:40:27.740Z,-7.32
2019-02-04T10:42:53.973Z,-7.32
2019-02-04T10:45:20.418Z,-7.33
2019-02-04T10:47:47.410Z,-7.34
2019-02-04T10:50:21.716Z,-7.35
2019-02-04T10:52:47.851Z,-7.35
2019-02-04T10:55:14.366Z,-7.35
2019-02-04T10:57:40.975Z,-7.34
2019-02-04T11:00:13.682Z,-7.36
2019-02-04T11:02:39.913Z,-7.36
2019-02-04T11:05:09.234Z,-7.36
2019-02-04T11:07:35.653Z,-7.36
2019-02-04T11:10:03.361Z,-7.37
2019-02-04T11:12:29.531Z,-7.37
2019-02-04T11:14:55.598Z,-7.40
2019-02-04T11:17:21.542Z,-7.38
2019-02-04T11:19:47.570Z,-7.39
2019-02-04T11:22:13.567Z,-7.40
2019-02-04T11:24:39.621Z,-7.41
2019-02-04T11:27:06.211Z,-7.41
2019-02-04T11:29:32.371Z,-7.42
2019-02-04T11:31:58.594Z,-7.43
2019-02-04T11:34:24.678Z,-7.45
2019-02-04T11:36:50.788Z,-7.45
2019-02-04T11:39:16.798Z,-7.46
2019-02-04T11:41:42.972Z,-7.45
2019-02-04T11:44:08.953Z,-7.45
2019-02-04T11:46:35.169Z,-7.47
2019-02-04T11:49:01.344Z,-7.46
2019-02-04T11:51:27.476Z,-7.48
2019-02-04T11:53:53.630Z,-7.48
2019-02-04T11:56:19.635Z,-7.48
2019-02-04T11:58:45.681Z,-7.52
2019-02-04T12:01:11.781Z,-7.52
2019-02-04T12:03:37.924Z,-7.52
2019-02-04T12:06:04.348Z,-7.50
2019-02-04T12:08:30.481Z,-7.50
2019-02-04T12:10:59.876Z,-7.51
2019-02-04T12:13:25.930Z,-7.52
2019-02-04T12:15:52.956Z,-7.52
2019-02-04T12:18:19.109Z,-7.54
2019-02-04T12:20:45.263Z,-7.53
2019-02-04T12:23:11.491Z,-7.53
2019-02-04T12:25:37.825Z,-7.53
2019-02-04T12:28:04.245Z,-7.54
2019-02-04T12:30:35.905Z,-7.55
2019-02-04T12:33:03.833Z,-7.58
2019-02-04T12:35:29.988Z,-7.57
2019-02-04T12:37:56.191Z,-7.57
2019-02-04T12:40:22.440Z,-7.58
2019-02-04T12:42:48.764Z,-7.58
2019-02-04T12:45:26.632Z,-7.60
2019-02-04T12:47:53.149Z,-7.60
2019-02-04T12:50:19.451Z,-7.59
2019-02-04T12:52:45.437Z,-7.61
2019-02-04T12:55:20.185Z,-7.60
2019-02-04T12:57:46.497Z,-7.62
2019-02-04T13:00:20.587Z,-7.65
2019-02-04T13:02:46.799Z,-7.65
2019-02-04T13:05:15.938Z,-7.62
2019-02-04T13:07:41.944Z,-7.64
2019-02-04T13:10:10.829Z,-7.64
2019-02-04T13:12:37.256Z,-7.64
2019-02-04T13:15:06.945Z,-7.64
2019-02-04T13:17:32.888Z,-7.66
2019-02-04T13:19:58.941Z,-7.67
2019-02-04T13:22:24.918Z,-7.68
2019-02-04T13:24:51.135Z,-7.69
2019-02-04T13:27:17.245Z,-7.70
2019-02-04T13:29:43.292Z,-7.70
2019-02-04T13:32:09.600Z,-7.72
2019-02-04T13:34:35.734Z,-7.73
2019-02-04T13:37:01.859Z,-7.73
2019-02-04T13:39:27.883Z,-7.75
2019-02-04T13:41:54.025Z,-7.77
2019-02-04T13:44:19.960Z,-7.77
2019-02-04T13:46:46.076Z,-7.78
2019-02-04T13:49:14.067Z,-7.79
2019-02-04T13:51:40.379Z,-7.79
2019-02-04T13:54:06.503Z,-7.81
2019-02-04T13:56:32.405Z,-7.81
2019-02-04T13:58:58.355Z,-7.83
2019-02-04T14:01:24.359Z,-7.83
2019-02-04T14:03:50.468Z,-7.85
2019-02-04T14:06:16.402Z,-7.86
2019-02-04T14:08:42.527Z,-7.88
2019-02-04T14:11:08.665Z,-7.88
2019-02-04T14:13:34.669Z,-7.91
2019-02-04T14:16:00.800Z,-7.91
2019-02-04T14:18:26.899Z,-7.93
2019-02-04T14:20:52.961Z,-7.92
2019-02-04T14:23:19.069Z,-7.95
2019-02-04T14:25:45.195Z,-7.95
2019-02-04T14:28:11.613Z,-7.97
2019-02-04T14:30:38.047Z,-7.98
2019-02-04T14:33:04.450Z,-7.99
2019-02-04T14:35:30.681Z,-8.01
2019-02-04T14:37:57.039Z,-8.02
2019-02-04T14:40:23.232Z,-8.04
2019-02-04T14:42:55.720Z,-8.04
2019-02-04T14:45:31.381Z,-8.06
2019-02-04T14:48:15.800Z,-8.08
2019-02-04T14:51:05.071Z,-8.09
2019-02-04T14:53:35.045Z,-8.10
2019-02-04T14:56:10.493Z,-8.14
2019-02-04T14:58:51.609Z,-8.15
2019-02-04T15:01:38.292Z,-8.16
2019-02-04T15:04:08.052Z,-8.19
2019-02-04T15:06:37.741Z,-8.22
2019-02-04T15:09:40.792Z,-8.23
2019-02-04T15:12:19.597Z,-8.25
2019-02-04T15:15:10.461Z,-8.26
2019-02-04T15:17:39.803Z,-8.29
2019-02-04T15:20:26.005Z,-8.33
2019-02-04T15:23:16.865Z,-8.33
2019-02-04T15:25:52.302Z,-8.36
2019-02-04T15:28:36.931Z,-8.38
2019-02-04T15:31:40.809Z,-8.42
2019-02-04T15:34:27.140Z,-8.44
2019-02-04T15:37:08.948Z,-8.46
2019-02-04T15:39:53.609Z,-8.49
2019-02-04T15:42:52.997Z,-8.51
2019-02-04T15:45:42.265Z,-8.55
2019-02-04T15:48:09.300Z,-8.56
2019-02-04T15:50:45.226Z,-8.60
2019-02-04T15:53:11.310Z,-8.60
2019-02-04T15:55:40.024Z,-8.64
2019-02-04T15:58:05.531Z,-8.66
2019-02-04T16:00:31.668Z,-8.66
2019-02-04T16:02:57.785Z,-8.69
2019-02-04T16:05:23.712Z,-8.70
2019-02-04T16:07:49.751Z,-8.70
2019-02-04T16:10:16.165Z,-8.73
2019-02-04T16:12:42.260Z,-8.75
2019-02-04T16:15:10.186Z,-8.78
2019-02-04T16:17:36.191Z,-8.79
2019-02-04T16:20:05.729Z,-8.82
2019-02-04T16:22:32.061Z,-8.83
2019-02-04T16:24:58.979Z,-8.86
2019-02-04T16:27:24.897Z,-8.89
2019-02-04T16:29:50.915Z,-8.90
2019-02-04T16:32:16.941Z,-8.92
2019-02-04T16:34:43.037Z,-8.94
2019-02-04T16:37:09.155Z,-8.98
2019-02-04T16:39:35.176Z,-8.99
2019-02-04T16:42:01.590Z,-9.01
2019-02-04T16:44:27.739Z,-9.04
2019-02-04T16:46:54.635Z,-9.05
2019-02-04T16:49:20.697Z,-9.07
2019-02-04T16:51:46.701Z,-9.09
2019-02-04T16:54:12.734Z,-9.11
2019-02-04T16:56:38.849Z,-9.14
2019-02-04T16:59:05.074Z,-9.16
2019-02-04T17:01:31.197Z,-9.17
2019-02-04T17:03:57.212Z,-9.20
2019-02-04T17:06:23.213Z,-9.21
2019-02-04T17:08:49.362Z,-9.25
2019-02-04T17:11:15.469Z,-9.25
2019-02-04T17:13:41.518Z,-9.27
2019-02-04T17:16:07.633Z,-9.29
2019-02-04T17:18:33.744Z,-9.30
2019-02-04T17:20:59.776Z,-9.34
2019-02-04T17:23:26.043Z,-9.35
2019-02-04T17:25:52.177Z,-9.37
2019-02-04T17:28:18.420Z,-9.39
2019-02-04T17:30:44.301Z,-9.42
2019-02-04T17:33:10.454Z,-9.44
2019-02-04T17:35:36.745Z,-9.45
2019-02-04T17:38:04.193Z,-9.47
2019-02-04T17:40:30.521Z,-9.49
2019-02-04T17:42:57.652Z,-9.51
2019-02-04T17:45:23.738Z,-9.53
2019-02-04T17:47:51.263Z,-9.56
2019-02-04T17:50:18.999Z,-9.57
2019-02-04T17:52:45.123Z,-9.58
2019-02-04T17:55:14.013Z,-9.59
2019-02-04T17:57:40.197Z,-9.61
2019-02-04T18:00:12.141Z,-9.62
2019-02-04T18:02:38.032Z,-9.63
2019-02-04T18:05:04.569Z,-9.64
2019-02-04T18:07:30.574Z,-9.65
2019-02-04T18:09:56.464Z,-9.66
2019-02-04T18:12:22.500Z,-9.66
2019-02-04T18:14:48.493Z,-9.68
2019-02-04T18:17:14.646Z,-9.73
2019-02-04T18:19:40.854Z,-9.73
2019-02-04T18:22:06.985Z,-9.73
2019-02-04T18:24:32.966Z,-9.75
2019-02-04T18:26:59.164Z,-9.75
2019-02-04T18:29:25.203Z,-9.75
2019-02-04T18:31:51.208Z,-9.77
2019-02-04T18:34:17.151Z,-9.78
2019-02-04T18:36:43.055Z,-9.79
2019-02-04T18:39:09.800Z,-9.80
2019-02-04T18:41:35.904Z,-9.81
2019-02-04T18:44:02.428Z,-9.82
2019-02-04T18:46:28.625Z,-9.83
2019-02-04T18:48:54.704Z,-9.84
2019-02-04T18:51:20.818Z,-9.85
2019-02-04T18:53:57.434Z,-9.86
2019-02-04T18:56:14.762Z,-9.87
2019-02-04T18:58:40.937Z,-9.88
2019-02-04T19:01:07.075Z,-9.89
2019-02-04T19:03:33.158Z,-9.91
2019-02-04T19:05:59.171Z,-9.91
2019-02-04T19:08:25.071Z,-9.92
2019-02-04T19:10:51.210Z,-9.94
2019-02-04T19:13:17.219Z,-9.95
2019-02-04T19:15:43.378Z,-9.96
2019-02-04T19:18:12.025Z,-9.98
2019-02-04T19:20:38.256Z,-9.98
2019-02-04T19:23:04.540Z,-10.00
2019-02-04T19:25:30.454Z,-10.01
2019-02-04T19:27:56.474Z,-10.01
2019-02-04T19:30:29.330Z,-10.04
2019-02-04T19:32:55.658Z,-10.04
2019-02-04T19:35:21.769Z,-10.04
2019-02-04T19:37:47.681Z,-10.07
2019-02-04T19:40:15.308Z,-10.07
2019-02-04T19:42:41.445Z,-10.07
2019-02-04T19:45:11.201Z,-10.08
2019-02-04T19:47:37.101Z,-10.09
2019-02-04T19:50:07.240Z,-10.09
2019-02-04T19:52:33.228Z,-10.10
2019-02-04T19:54:59.166Z,-10.10
2019-02-04T19:57:25.273Z,-10.14
2019-02-04T19:59:51.379Z,-10.13
2019-02-04T20:02:17.308Z,-10.14
2019-02-04T20:04:43.607Z,-10.15
2019-02-04T20:07:09.713Z,-10.17
2019-02-04T20:09:36.029Z,-10.18
2019-02-04T20:12:02.084Z,-10.19
2019-02-04T20:14:28.080Z,-10.21
2019-02-04T20:16:54.073Z,-10.22
2019-02-04T20:19:20.028Z,-10.25
2019-02-04T20:21:46.129Z,-10.25
2019-02-04T20:24:12.193Z,-10.27
2019-02-04T20:26:38.076Z,-10.28
2019-02-04T20:29:04.224Z,-10.30
2019-02-04T20:31:30.530Z,-10.32
2019-02-04T20:33:56.578Z,-10.34
2019-02-04T20:36:22.688Z,-10.36
2019-02-04T20:38:48.674Z,-10.37
2019-02-04T20:41:14.589Z,-10.39
2019-02-04T20:43:40.518Z,-10.42
2019-02-04T20:46:06.657Z,-10.43
2019-02-04T20:48:32.660Z,-10.43
2019-02-04T20:51:00.606Z,-10.45
2019-02-04T20:53:26.744Z,-10.47
2019-02-04T20:55:52.640Z,-10.48
2019-02-04T20:58:18.575Z,-10.49
2019-02-04T21:00:44.731Z,-10.51
2019-02-04T21:03:10.858Z,-10.52
2019-02-04T21:05:36.881Z,-10.54
2019-02-04T21:08:03.781Z,-10.55
2019-02-04T21:10:29.922Z,-10.56
2019-02-04T21:12:56.719Z,-10.58
2019-02-04T21:15:23.182Z,-10.60
2019-02-04T21:17:49.507Z,-10.62
2019-02-04T21:20:21.174Z,-10.63
2019-02-04T21:22:47.292Z,-10.66
2019-02-04T21:25:13.590Z,-10.68
2019-02-04T21:27:39.722Z,-10.72
2019-02-04T21:30:15.563Z,-10.75
2019-02-04T21:32:41.628Z,-10.77
2019-02-04T21:35:07.745Z,-10.80
2019-02-04T21:37:33.774Z,-10.83
2019-02-04T21:39:59.691Z,-10.86
2019-02-04T21:42:25.829Z,-10.87
2019-02-04T21:44:51.867Z,-10.91
2019-02-04T21:47:18.276Z,-10.94
2019-02-04T21:49:44.367Z,-10.97
2019-02-04T21:52:10.500Z,-10.99
2019-02-04T21:54:36.387Z,-11.02
2019-02-04T21:57:02.430Z,-11.05
2019-02-04T21:59:28.354Z,-11.08
2019-02-04T22:01:54.558Z,-11.10
2019-02-04T22:04:20.440Z,-11.14
2019-02-04T22:06:46.348Z,-11.16
2019-02-04T22:09:12.553Z,-11.19
2019-02-04T22:11:38.571Z,-11.21
2019-02-04T22:14:05.211Z,-11.25
2019-02-04T22:16:31.105Z,-11.27
2019-02-04T22:18:57.326Z,-11.31
2019-02-04T22:21:23.235Z,-11.33
2019-02-04T22:23:49.189Z,-11.38
2019-02-04T22:26:15.200Z,-11.39
2019-02-04T22:28:41.218Z,-11.44
2019-02-04T22:31:07.253Z,-11.45
2019-02-04T22:33:33.270Z,-11.48
2019-02-04T22:35:59.216Z,-11.52
2019-02-04T22:38:25.236Z,-11.55
2019-02-04T22:40:51.340Z,-11.59
2019-02-04T22:43:17.267Z,-11.61
2019-02-04T22:45:43.313Z,-11.64
2019-02-04T22:48:09.263Z,-11.67
2019-02-04T22:50:35.275Z,-11.70
2019-02-04T22:53:02.333Z,-11.73
2019-02-04T22:55:31.970Z,-11.75
2019-02-04T22:57:56.636Z,-11.78
2019-02-04T23:00:31.027Z,-11.80
2019-02-04T23:02:57.252Z,-11.83
2019-02-04T23:05:23.354Z,-11.88
2019-02-04T23:07:49.767Z,-11.90
2019-02-04T23:10:15.987Z,-11.95
2019-02-04T23:12:42.090Z,-11.97
2019-02-04T23:15:08.733Z,-12.01
2019-02-04T23:17:34.862Z,-12.03
2019-02-04T23:20:00.875Z,-12.06
2019-02-04T23:22:26.808Z,-12.09
2019-02-04T23:24:52.813Z,-12.12
2019-02-04T23:27:19.033Z,-12.15
2019-02-04T23:29:45.380Z,-12.19
2019-02-04T23:32:11.376Z,-12.21
2019-02-04T23:34:37.409Z,-12.21
2019-02-04T23:37:03.395Z,-12.25
2019-02-04T23:39:29.339Z,-12.28
2019-02-04T23:41:58.256Z,-12.28
2019-02-04T23:44:23.092Z,-12.31
2019-02-04T23:46:49.297Z,-12.33
2019-02-04T23:49:15.328Z,-12.36
2019-02-04T23:51:41.446Z,-12.38
2019-02-04T23:54:07.470Z,-12.41
2019-02-04T23:56:33.620Z,-12.42
2019-02-04T23:58:59.623Z,-12.43
